Tuscarora, MD (21790)

5:42 PM EDT on July 30, 2016 (GMT -0400)
Village Green Lucketts | | Change Station

Elev 322 ft 39.24 °N, 77.51 °W | Updated 6 seconds ago

Rain
Rain
74.7 °F
Feels Like 72 °F
N
1.1
Wind Variable Wind from NNW
Gusts 2.0 mph

Today
High -- | Low -- °F
--% Chance of Precip.
Yesterday
High -- | Low -- °F
Precip. -- in
Pressure 29.92 in
Visibility 10.0 miles
Clouds Scattered Clouds 2000 ft
Mostly Cloudy 3200 ft
Mostly Cloudy 9000 ft
Heat Index 72 °F
Dew Point 73 °F
Humidity 96%
Rainfall 0.56 in
Snow Depth Not available.
6:08 AM 8:23 PM
Waning Crescent, 11% visible
METAR KFDK 302050Z 17004KT 10SM VCTS SCT020 BKN032 BKN090 28/24 A2992
Pressure 29.92 in
Visibility 10.0 miles
Clouds Scattered Clouds 2000 ft
Mostly Cloudy 3200 ft
Mostly Cloudy 9000 ft
Heat Index 72 °F
Dew Point 73 °F
Humidity 96%
Rainfall 0.56 in
Snow Depth Not available.
6:08 AM 8:23 PM
Waning Crescent, 11% visible
METAR KFDK 302050Z 17004KT 10SM VCTS SCT020 BKN032 BKN090 28/24 A2992

10-Day Weather Forecast

Almanac

Astronomy

Jul. 30, 2016 Rise Set
Actual Time
Civil Twilight
Nautical Twilight
Astronomical Twilight
Moon
Length of Visible Light
Length of Day
Tomorrow will be .
, % of the Moon is Illuminated

Today's Extremes

State Highs State Lows

Community

WunderPhotos

Upload Photos

1,928,657 photos uploaded!

WunderBlog® & News

Nearby

Air Quality

  Air Quality AQ Index Pollutant
Not available.

Snow Depth

Station Depth Elevation

Earthquake Activity

City Distance Mag. Time & Date
Minimum magnitude displayed is 2.5.

Coastal Water Temperatures

Place Temperature

Stations

Nearby Weather Stations

Station Location Temp. Windchill Dew Point Humidity Wind Precip. Elev Updated Type
                   

Watches & Warnings

There are currently no watches in effect.